Tropical Cyclones
[Index]
Main Index Home Page Stock Weather Photos Extreme Storms Discussion Storm News and Storm Chasing Reports Tropical Cyclones / Hurricanes / Typhoons Weather Data and Links Wild Fires / Bushfires Weather Observation Techniques Weather Picture Catalogue Tornado Pictures and Reports Stock Video Footage and DVDs for sale
Season 1989-1990 Tropical Cyclone EDISAONA Track Map
Season 1989-1990 Summaries: [BoM-AU] [JTWC-AU] [JTWC-SIO] [JTWC-SPAC] [JTWC-SH]
<<- Previous TC | JTWC 1989-1990 Season | Next TC ->>

click for intensity scale information  Lat/long Grid: Show Hide

 Date Labels: Show Hide

Joint Typhoon Warning Centre Cyclone Data

Name: EDISAONA

26 Feb 1990 18:00 UTC to 08 Mar 1990 06:00 UTC

    date/time    lat    long     hPa   cat  kts
1990-02-26 18   16.0    75.0                  20          
1990-02-27 00   15.4    74.0                  20          
1990-02-27 06   14.8    73.1                  20          
1990-02-27 12   14.4    72.2                  20          
1990-02-27 18   14.4    71.4                  20          
1990-02-28 00   14.8    70.9                  20          
1990-02-28 06   15.2    70.4                  20          
1990-02-28 12   15.6    69.6                  20          
1990-02-28 18   15.6    68.0                  20          
1990-03-01 00   15.5    66.5                  25          
1990-03-01 06   15.2    65.3                  30          
1990-03-01 12   14.9    64.2                  30          
1990-03-01 18   14.7    63.5                  30          
1990-03-02 00   14.7    63.0                  35          
1990-03-02 06   15.0    63.0                  35          
1990-03-02 12   15.3    63.0                  35          
1990-03-02 18   15.4    62.9                  35          
1990-03-03 00   15.5    62.7            1     40          
1990-03-03 06   15.6    62.5            1     45          
1990-03-03 12   15.9    62.4            1     50          
1990-03-03 18   16.3    62.3            2     55          
1990-03-04 00   16.8    62.0            2     60          
1990-03-04 06   17.2    61.6            2     65          
1990-03-04 12   17.4    61.2            2     70          
1990-03-04 18   17.5    61.2            3     75          
1990-03-05 00   17.8    61.1            3     80          
1990-03-05 06   18.1    61.1            3     85          
1990-03-05 12   18.5    61.1            3     85          
1990-03-05 18   19.1    61.2            3     90          
1990-03-06 00   19.9    61.2            3     95          
1990-03-06 06   20.8    61.2            4    100          
1990-03-06 12   22.2    61.2            3     95          
1990-03-06 18   24.1    61.6            3     90          
1990-03-07 00   26.1    62.1            3     85          
1990-03-07 06   28.6    62.4            3     75          
1990-03-07 12   31.4    62.5            2     60          
1990-03-07 18   34.2    62.8            1     50          
1990-03-08 00   36.2    63.3            1     45          
1990-03-08 06   38.7    64.2            1     45          
Winds are 1-min average.

Tropical cyclone tracks developed by Michael Bath using data from the Joint Typhoon Warning Centre Best Tracks and Google Maps.


[Australian Severe Weather index] [Copyright Notice] [Email Contacts] [Search This Site] [Privacy Policy]
Document: tropical_cyclone_edisaona.htm Updated: 18 September 2016